Time;durP1;ratioP1;P1;durP2;ratioP2;P2;SDS_P1;SDS_P2;PMS_P1;PMS_P2;Temp;Humidity;BMP_temperature;BMP_pressure;BME280_temperature;BME280_humidity;BME280_pressure;Samples;Min_cycle;Max_cycle;Signal;HPM_P1;HPM_P2
2022/03/19 00:01:04;;;;;;;48.77;32.43;;;;;;;;;;4947850;28;20952;-54
2022/03/19 00:03:36;;;;;;;66.23;34.53;;;;;;;;;;4940440;28;20462;-56
2022/03/19 00:06:02;;;;;;;61.93;30.77;;;;;;;;;;4938388;28;20443;-55
2022/03/19 00:08:28;;;;;;;56.80;33.83;;;;;;;;;;4946079;28;20474;-55
2022/03/19 00:10:54;;;;;;;59.03;32.13;;;;;;;;;;4945437;28;20999;-54
2022/03/19 00:13:22;;;;;;;55.00;31.80;;;;;;;;;;4944876;28;20796;-53
2022/03/19 00:15:50;;;;;;;54.97;32.53;;;;;;;;;;4939009;28;20447;-54
2022/03/19 00:18:16;;;;;;;56.27;34.47;;;;;;;;;;4948588;28;20443;-55
2022/03/19 00:20:42;;;;;;;56.77;32.97;;;;;;;;;;4946941;28;20459;-55
2022/03/19 00:23:12;;;;;;;50.93;31.67;;;;;;;;;;4946484;28;20423;-56
2022/03/19 00:25:38;;;;;;;54.17;31.77;;;;;;;;;;4945150;28;20516;-55
2022/03/19 00:28:04;;;;;;;59.50;32.37;;;;;;;;;;4940961;28;20438;-54
2022/03/19 00:30:31;;;;;;;53.63;31.50;;;;;;;;;;4944400;28;20494;-56
2022/03/19 00:33:00;;;;;;;54.20;33.23;;;;;;;;;;4942118;28;20519;-58
2022/03/19 00:35:26;;;;;;;49.90;29.17;;;;;;;;;;4948161;28;21100;-55
2022/03/19 00:37:53;;;;;;;50.37;30.93;;;;;;;;;;4945045;28;20431;-54
2022/03/19 00:40:24;;;;;;;54.83;29.70;;;;;;;;;;4946069;28;20447;-54
2022/03/19 00:42:51;;;;;;;55.50;30.53;;;;;;;;;;4945290;28;20576;-57
2022/03/19 00:45:17;;;;;;;51.87;31.77;;;;;;;;;;4945202;28;21151;-56
2022/03/19 00:47:46;;;;;;;59.90;33.90;;;;;;;;;;4944991;28;20442;-55
2022/03/19 00:50:12;;;;;;;54.07;31.30;;;;;;;;;;4943500;28;20582;-56
2022/03/19 00:52:38;;;;;;;57.53;31.67;;;;;;;;;;4941864;28;21224;-55
2022/03/19 00:55:05;;;;;;;59.27;33.93;;;;;;;;;;4940253;28;21460;-56
2022/03/19 00:57:37;;;;;;;57.03;31.07;;;;;;;;;;4941612;28;20934;-55
2022/03/19 01:00:04;;;;;;;57.33;31.90;;;;;;;;;;4944584;28;20932;-57
2022/03/19 01:02:30;;;;;;;54.83;33.13;;;;;;;;;;4944396;28;20506;-55
2022/03/19 01:04:56;;;;;;;51.63;31.60;;;;;;;;;;4949828;28;20479;-57
2022/03/19 01:07:23;;;;;;;57.73;35.33;;;;;;;;;;4941696;28;20877;-54
2022/03/19 01:09:53;;;;;;;55.33;33.40;;;;;;;;;;4946218;28;20435;-55
2022/03/19 01:12:19;;;;;;;46.90;27.80;;;;;;;;;;4941425;28;20483;-55
2022/03/19 01:14:45;;;;;;;49.00;29.07;;;;;;;;;;4943069;28;20796;-55
2022/03/19 01:17:11;;;;;;;50.03;30.90;;;;;;;;;;4943312;28;20446;-56
2022/03/19 01:19:52;;;;;;;51.23;29.63;;;;;;;;;;4943456;28;20546;-56
2022/03/19 01:22:19;;;;;;;52.33;30.87;;;;;;;;;;4944233;28;20794;-54
2022/03/19 01:24:46;;;;;;;53.20;31.60;;;;;;;;;;4944104;28;20792;-56
2022/03/19 01:27:17;;;;;;;67.97;32.37;;;;;;;;;;4932578;28;20534;-56
2022/03/19 01:29:44;;;;;;;45.57;30.17;;;;;;;;;;4944698;28;20509;-55
2022/03/19 01:32:11;;;;;;;53.77;32.73;;;;;;;;;;4924543;28;20485;-54
2022/03/19 01:34:37;;;;;;;46.67;30.60;;;;;;;;;;4941649;28;20891;-54
2022/03/19 01:37:06;;;;;;;51.07;30.43;;;;;;;;;;4945879;28;21216;-56
2022/03/19 01:39:32;;;;;;;49.73;29.50;;;;;;;;;;4952788;28;20430;-55
2022/03/19 01:41:58;;;;;;;42.23;26.57;;;;;;;;;;4940339;28;20959;-56
2022/03/19 01:44:24;;;;;;;48.43;30.20;;;;;;;;;;4942540;28;20532;-54
2022/03/19 01:46:54;;;;;;;51.07;28.57;;;;;;;;;;4945793;28;20944;-54
2022/03/19 01:49:20;;;;;;;42.70;25.90;;;;;;;;;;4944936;28;20439;-53
2022/03/19 01:51:46;;;;;;;43.80;28.33;;;;;;;;;;4942363;28;20532;-55
2022/03/19 01:54:18;;;;;;;51.90;28.93;;;;;;;;;;4945753;28;20606;-55
2022/03/19 01:56:44;;;;;;;50.27;29.27;;;;;;;;;;4939370;28;20913;-54
2022/03/19 01:59:10;;;;;;;45.83;28.07;;;;;;;;;;4941022;28;20466;-53
2022/03/19 02:01:36;;;;;;;45.83;29.03;;;;;;;;;;4944760;28;20950;-56
2022/03/19 02:04:02;;;;;;;46.07;26.83;;;;;;;;;;4940942;28;20454;-54
2022/03/19 02:06:29;;;;;;;41.00;27.67;;;;;;;;;;4944881;28;20541;-55
2022/03/19 02:08:55;;;;;;;45.40;28.27;;;;;;;;;;4941097;28;20486;-54
2022/03/19 02:11:21;;;;;;;49.23;28.83;;;;;;;;;;4941757;28;20545;-55
2022/03/19 02:13:47;;;;;;;44.70;28.33;;;;;;;;;;4941191;28;20448;-54
2022/03/19 02:16:15;;;;;;;40.80;28.20;;;;;;;;;;4942937;28;20445;-55
2022/03/19 02:18:41;;;;;;;45.97;27.60;;;;;;;;;;4945918;28;20753;-54
2022/03/19 02:21:07;;;;;;;49.10;27.70;;;;;;;;;;4943407;28;20435;-55
2022/03/19 02:26:20;;;;;;;51.93;28.50;;;;;;;;;;4944658;28;20441;-58
2022/03/19 02:28:47;;;;;;;44.20;25.93;;;;;;;;;;4943544;28;20450;-54
2022/03/19 02:31:13;;;;;;;44.57;25.80;;;;;;;;;;4943049;28;20489;-54
2022/03/19 02:33:39;;;;;;;41.97;26.53;;;;;;;;;;4945425;28;20845;-53
2022/03/19 02:36:05;;;;;;;38.30;25.43;;;;;;;;;;4940534;28;20445;-54
2022/03/19 02:38:31;;;;;;;41.80;26.60;;;;;;;;;;4943613;28;20553;-53
2022/03/19 02:40:57;;;;;;;39.57;25.63;;;;;;;;;;4945527;28;20446;-53
2022/03/19 02:43:23;;;;;;;46.23;28.30;;;;;;;;;;4941686;28;20818;-54
2022/03/19 02:45:50;;;;;;;37.63;24.47;;;;;;;;;;4944681;28;20453;-55
2022/03/19 02:48:15;;;;;;;45.13;25.10;;;;;;;;;;4944183;28;20643;-54
2022/03/19 02:50:41;;;;;;;42.83;26.00;;;;;;;;;;4947373;28;20479;-53
2022/03/19 02:53:08;;;;;;;47.83;26.90;;;;;;;;;;4947470;28;20446;-54
2022/03/19 02:55:35;;;;;;;46.47;27.10;;;;;;;;;;4947922;28;20446;-53
2022/03/19 02:58:01;;;;;;;40.47;26.37;;;;;;;;;;4944045;28;20469;-54
2022/03/19 03:00:27;;;;;;;45.50;28.37;;;;;;;;;;4946989;28;20449;-54
2022/03/19 03:02:53;;;;;;;40.33;26.10;;;;;;;;;;4948200;28;20449;-54
2022/03/19 03:05:20;;;;;;;45.03;27.37;;;;;;;;;;4945661;28;21540;-55
2022/03/19 03:07:46;;;;;;;41.83;24.17;;;;;;;;;;4944836;28;21021;-54
2022/03/19 03:10:12;;;;;;;41.37;26.17;;;;;;;;;;4942919;28;20450;-54
2022/03/19 03:12:38;;;;;;;50.53;28.87;;;;;;;;;;4934288;28;20453;-55
2022/03/19 03:15:07;;;;;;;42.50;27.80;;;;;;;;;;4947683;28;20437;-54
2022/03/19 03:17:34;;;;;;;41.60;27.40;;;;;;;;;;4948922;28;20481;-55
2022/03/19 03:20:00;;;;;;;41.97;26.33;;;;;;;;;;4946730;28;20442;-54
2022/03/19 03:22:26;;;;;;;39.00;24.70;;;;;;;;;;4943005;28;20529;-54
2022/03/19 03:24:52;;;;;;;46.77;26.87;;;;;;;;;;4946915;28;20621;-54
2022/03/19 03:27:18;;;;;;;45.27;29.30;;;;;;;;;;4946502;28;20442;-53
2022/03/19 03:29:49;;;;;;;40.13;25.40;;;;;;;;;;4947659;28;20469;-55
2022/03/19 03:32:15;;;;;;;45.47;27.20;;;;;;;;;;4941803;28;20474;-54
2022/03/19 03:34:41;;;;;;;43.30;27.53;;;;;;;;;;4947015;28;20512;-55
2022/03/19 03:37:07;;;;;;;40.50;27.17;;;;;;;;;;4946921;28;20446;-55
2022/03/19 03:39:34;;;;;;;48.03;28.87;;;;;;;;;;4947035;28;21187;-56
2022/03/19 03:42:00;;;;;;;41.57;26.73;;;;;;;;;;4943230;28;22495;-54
2022/03/19 03:44:26;;;;;;;41.93;26.63;;;;;;;;;;4947416;28;20453;-56
2022/03/19 03:46:56;;;;;;;48.00;28.27;;;;;;;;;;4946495;28;20439;-55
2022/03/19 03:49:25;;;;;;;44.80;26.50;;;;;;;;;;4951498;28;20435;-54
2022/03/19 03:51:52;;;;;;;50.50;29.10;;;;;;;;;;4944385;28;20551;-56
2022/03/19 03:54:18;;;;;;;45.17;28.70;;;;;;;;;;4948358;28;20454;-55
2022/03/19 03:56:44;;;;;;;44.57;25.77;;;;;;;;;;4944251;28;20438;-54
2022/03/19 03:59:10;;;;;;;48.90;29.07;;;;;;;;;;4946077;28;21315;-55
2022/03/19 04:01:35;;;;;;;50.93;27.97;;;;;;;;;;4945797;28;20194;-55
2022/03/19 04:04:02;;;;;;;39.47;25.73;;;;;;;;;;4944585;28;20349;-54
2022/03/19 04:06:28;;;;;;;45.50;27.40;;;;;;;;;;4944124;28;20503;-53
2022/03/19 04:08:54;;;;;;;41.50;23.57;;;;;;;;;;4946276;28;20661;-54
2022/03/19 04:11:19;;;;;;;45.90;26.30;;;;;;;;;;4945745;28;20569;-53
2022/03/19 04:13:45;;;;;;;46.83;28.47;;;;;;;;;;4943891;28;20443;-54
2022/03/19 04:16:16;;;;;;;38.50;23.53;;;;;;;;;;4946946;28;21117;-55
2022/03/19 04:18:44;;;;;;;41.67;24.73;;;;;;;;;;4942671;28;20449;-55
2022/03/19 04:21:10;;;;;;;47.23;27.50;;;;;;;;;;4945309;28;20475;-55
2022/03/19 04:23:36;;;;;;;42.37;24.93;;;;;;;;;;4944844;28;20513;-56
2022/03/19 04:26:03;;;;;;;45.13;27.20;;;;;;;;;;4946486;28;20451;-55
2022/03/19 04:28:29;;;;;;;40.17;24.63;;;;;;;;;;4940800;28;20567;-55
2022/03/19 04:30:55;;;;;;;44.50;27.60;;;;;;;;;;4937644;28;20948;-54
2022/03/19 04:33:21;;;;;;;46.53;26.30;;;;;;;;;;4942338;28;20568;-54
2022/03/19 04:38:32;;;;;;;44.63;26.37;;;;;;;;;;4945254;28;20462;-54
2022/03/19 04:41:00;;;;;;;44.90;25.10;;;;;;;;;;4944955;28;20441;-55
2022/03/19 04:43:26;;;;;;;45.57;27.60;;;;;;;;;;4931366;28;20442;-54
2022/03/19 04:45:52;;;;;;;43.93;27.00;;;;;;;;;;4943291;28;20466;-54
2022/03/19 04:48:18;;;;;;;45.17;25.70;;;;;;;;;;4944512;28;20427;-53
2022/03/19 04:50:46;;;;;;;44.87;25.90;;;;;;;;;;4941750;28;20490;-54
2022/03/19 04:53:13;;;;;;;43.40;26.10;;;;;;;;;;4945771;28;20513;-55
2022/03/19 04:55:39;;;;;;;41.00;26.37;;;;;;;;;;4943343;28;20460;-54
2022/03/19 04:58:05;;;;;;;42.10;24.20;;;;;;;;;;4943012;28;20777;-54
2022/03/19 05:00:31;;;;;;;47.73;25.13;;;;;;;;;;4942030;28;20781;-60
2022/03/19 05:02:58;;;;;;;47.33;26.43;;;;;;;;;;4940714;28;20533;-55
2022/03/19 05:05:25;;;;;;;44.60;26.77;;;;;;;;;;4944374;28;20437;-56
2022/03/19 05:07:55;;;;;;;48.73;24.90;;;;;;;;;;4943193;28;21585;-52
2022/03/19 05:13:07;;;;;;;42.47;25.93;;;;;;;;;;4943871;28;20593;-54
2022/03/19 05:15:36;;;;;;;44.07;26.40;;;;;;;;;;4943092;28;20439;-55
2022/03/19 05:18:02;;;;;;;48.23;29.43;;;;;;;;;;4944645;28;20513;-55
2022/03/19 05:20:29;;;;;;;44.90;25.97;;;;;;;;;;4942864;28;20447;-56
2022/03/19 05:22:55;;;;;;;42.40;25.50;;;;;;;;;;4944060;28;20454;-55
2022/03/19 05:25:22;;;;;;;49.17;26.83;;;;;;;;;;4950796;28;20663;-56
2022/03/19 05:27:52;;;;;;;50.63;28.10;;;;;;;;;;4944595;28;20482;-56
2022/03/19 05:30:18;;;;;;;38.67;23.87;;;;;;;;;;4941319;28;20513;-55
2022/03/19 05:32:47;;;;;;;47.63;25.50;;;;;;;;;;4941525;28;20468;-56
2022/03/19 05:35:20;;;;;;;49.00;28.70;;;;;;;;;;4941991;28;20465;-56
2022/03/19 05:37:50;;;;;;;42.30;27.70;;;;;;;;;;4946378;28;20450;-56
2022/03/19 05:40:16;;;;;;;35.60;25.17;;;;;;;;;;4942883;28;20480;-56
2022/03/19 05:42:43;;;;;;;43.40;27.40;;;;;;;;;;4940067;28;20456;-56
2022/03/19 05:45:15;;;;;;;47.00;26.07;;;;;;;;;;4942133;28;20696;-55
2022/03/19 05:47:41;;;;;;;44.00;26.70;;;;;;;;;;4942564;28;20441;-56
2022/03/19 05:50:08;;;;;;;46.60;27.57;;;;;;;;;;4944985;28;20449;-56
2022/03/19 05:52:34;;;;;;;45.27;26.60;;;;;;;;;;4939810;28;20569;-56
2022/03/19 05:55:00;;;;;;;41.73;25.50;;;;;;;;;;4945353;28;20573;-54
2022/03/19 05:57:27;;;;;;;38.37;25.37;;;;;;;;;;4942485;28;20493;-56
2022/03/19 05:59:53;;;;;;;42.27;26.73;;;;;;;;;;4938860;28;20974;-55
2022/03/19 06:02:19;;;;;;;45.07;25.70;;;;;;;;;;4938383;28;20586;-56
2022/03/19 06:04:47;;;;;;;44.13;25.80;;;;;;;;;;4940089;28;20435;-55
2022/03/19 06:07:16;;;;;;;41.97;25.90;;;;;;;;;;4942528;28;20467;-55
2022/03/19 06:09:44;;;;;;;40.30;25.57;;;;;;;;;;4943052;28;20463;-55
2022/03/19 06:12:13;;;;;;;41.47;23.87;;;;;;;;;;4938755;28;21139;-54
2022/03/19 06:14:39;;;;;;;47.10;26.37;;;;;;;;;;4942345;28;20430;-54
2022/03/19 06:17:09;;;;;;;44.37;25.10;;;;;;;;;;4944400;28;20640;-56
2022/03/19 06:19:36;;;;;;;45.93;26.53;;;;;;;;;;4939515;28;20434;-56
2022/03/19 06:22:02;;;;;;;41.37;25.57;;;;;;;;;;4943397;28;20939;-56
2022/03/19 06:24:27;;;;;;;44.23;25.97;;;;;;;;;;4944382;28;20882;-55
2022/03/19 06:26:53;;;;;;;47.63;25.47;;;;;;;;;;4941187;28;20447;-55
2022/03/19 06:29:21;;;;;;;46.67;27.87;;;;;;;;;;4942772;28;20445;-55
2022/03/19 06:31:48;;;;;;;47.03;27.30;;;;;;;;;;4941215;28;20493;-56
2022/03/19 06:34:17;;;;;;;45.30;26.80;;;;;;;;;;4943076;28;20453;-56
2022/03/19 06:39:32;;;;;;;40.20;26.30;;;;;;;;;;4942095;28;20874;-56
2022/03/19 06:41:59;;;;;;;52.57;27.03;;;;;;;;;;4928051;28;20650;-55
2022/03/19 06:44:25;;;;;;;46.97;27.57;;;;;;;;;;4940784;28;20427;-56
2022/03/19 06:46:56;;;;;;;42.27;25.47;;;;;;;;;;4945478;28;20435;-56
2022/03/19 06:49:22;;;;;;;46.93;26.57;;;;;;;;;;4948615;28;20442;-57
2022/03/19 06:51:55;;;;;;;44.83;25.53;;;;;;;;;;4944833;28;20585;-56
2022/03/19 06:54:21;;;;;;;42.93;27.73;;;;;;;;;;4946341;28;20533;-57
2022/03/19 06:56:49;;;;;;;43.60;27.40;;;;;;;;;;4946207;28;22162;-57
2022/03/19 06:59:17;;;;;;;44.60;27.03;;;;;;;;;;4943266;28;22221;-56
2022/03/19 07:01:43;;;;;;;48.10;27.77;;;;;;;;;;4946196;28;20438;-56
2022/03/19 07:04:10;;;;;;;46.20;28.07;;;;;;;;;;4943460;28;20460;-56
2022/03/19 07:06:36;;;;;;;47.80;29.53;;;;;;;;;;4950801;28;20806;-56
2022/03/19 07:09:02;;;;;;;44.43;26.80;;;;;;;;;;4941746;28;21119;-54
2022/03/19 07:11:31;;;;;;;40.17;26.10;;;;;;;;;;4947226;28;20747;-57
2022/03/19 07:14:01;;;;;;;51.20;27.20;;;;;;;;;;4950890;28;20458;-55
2022/03/19 07:16:27;;;;;;;44.07;26.50;;;;;;;;;;4946825;28;20438;-56
2022/03/19 07:18:56;;;;;;;45.10;25.73;;;;;;;;;;4948938;28;20955;-57
2022/03/19 07:21:23;;;;;;;37.10;23.47;;;;;;;;;;4945636;28;20455;-55
2022/03/19 07:23:56;;;;;;;41.40;24.10;;;;;;;;;;4938772;28;20439;-57
2022/03/19 07:26:22;;;;;;;39.27;23.43;;;;;;;;;;4949393;28;20453;-57
2022/03/19 07:28:53;;;;;;;41.27;23.90;;;;;;;;;;4943959;28;20482;-58
2022/03/19 07:31:24;;;;;;;35.13;21.77;;;;;;;;;;4932001;28;22907;-57
2022/03/19 07:33:50;;;;;;;35.83;24.87;;;;;;;;;;4947633;28;21217;-57
2022/03/19 07:36:19;;;;;;;39.60;25.43;;;;;;;;;;4946849;28;20512;-57
2022/03/19 07:38:46;;;;;;;47.40;25.30;;;;;;;;;;4948971;28;21124;-57
2022/03/19 07:44:00;;;;;;;37.93;23.77;;;;;;;;;;4946437;28;20562;-55
2022/03/19 07:46:30;;;;;;;34.77;24.03;;;;;;;;;;4947962;28;20493;-57
2022/03/19 07:49:01;;;;;;;38.03;23.40;;;;;;;;;;4946445;28;20439;-56
2022/03/19 07:51:39;;;;;;;41.00;22.87;;;;;;;;;;4943443;28;20566;-56
2022/03/19 07:54:07;;;;;;;31.90;21.17;;;;;;;;;;4946041;28;20430;-56
2022/03/19 07:56:38;;;;;;;31.20;21.63;;;;;;;;;;4950606;28;20483;-57
2022/03/19 07:59:06;;;;;;;36.67;22.07;;;;;;;;;;4944556;28;20426;-54
2022/03/19 08:01:37;;;;;;;35.43;23.47;;;;;;;;;;4947561;28;20932;-56
2022/03/19 08:04:03;;;;;;;29.63;20.63;;;;;;;;;;4944991;28;20435;-58
2022/03/19 08:06:29;;;;;;;32.67;20.17;;;;;;;;;;4942517;28;20450;-57
2022/03/19 08:08:55;;;;;;;28.57;18.00;;;;;;;;;;4943829;28;20879;-55
2022/03/19 08:11:26;;;;;;;34.30;20.00;;;;;;;;;;4944125;28;20876;-55
2022/03/19 08:13:56;;;;;;;34.57;21.60;;;;;;;;;;4940423;28;20453;-54
2022/03/19 08:16:24;;;;;;;33.80;20.90;;;;;;;;;;4945384;28;20455;-55
2022/03/19 08:18:51;;;;;;;29.60;17.83;;;;;;;;;;4929682;28;20443;-56
2022/03/19 08:21:17;;;;;;;32.00;17.97;;;;;;;;;;4940571;28;20450;-55
2022/03/19 08:23:52;;;;;;;25.27;17.27;;;;;;;;;;4948266;28;20509;-55
2022/03/19 08:26:37;;;;;;;27.97;18.03;;;;;;;;;;4949079;28;21064;-55
2022/03/19 08:29:05;;;;;;;30.73;16.63;;;;;;;;;;4949352;28;20451;-56
2022/03/19 08:31:33;;;;;;;29.70;19.03;;;;;;;;;;4944377;28;20539;-56
2022/03/19 08:34:00;;;;;;;29.67;19.30;;;;;;;;;;4946933;28;20466;-56
2022/03/19 08:36:26;;;;;;;28.53;17.53;;;;;;;;;;4942832;28;20569;-54
2022/03/19 08:41:37;;;;;;;33.20;18.30;;;;;;;;;;4944904;28;20450;-55
2022/03/19 08:44:05;;;;;;;26.30;17.10;;;;;;;;;;4947114;28;20462;-55
2022/03/19 08:46:32;;;;;;;19.90;16.27;;;;;;;;;;4947925;28;20957;-56
2022/03/19 08:48:58;;;;;;;25.03;16.17;;;;;;;;;;4947736;28;20434;-55
2022/03/19 08:51:39;;;;;;;31.23;17.80;;;;;;;;;;4946342;28;20481;-55
2022/03/19 08:54:10;;;;;;;29.40;16.33;;;;;;;;;;4947078;28;20457;-55
2022/03/19 08:56:58;;;;;;;27.70;18.17;;;;;;;;;;4948245;28;20453;-55
2022/03/19 08:59:25;;;;;;;22.73;16.50;;;;;;;;;;4949204;28;20947;-55
2022/03/19 09:01:51;;;;;;;30.43;16.10;;;;;;;;;;4952396;28;20454;-54
2022/03/19 09:04:17;;;;;;;24.33;17.70;;;;;;;;;;4949329;28;20895;-55
2022/03/19 09:06:43;;;;;;;23.47;17.27;;;;;;;;;;4947493;28;20453;-55
2022/03/19 09:09:11;;;;;;;20.70;15.20;;;;;;;;;;4943456;28;20442;-55
2022/03/19 09:11:37;;;;;;;18.27;12.90;;;;;;;;;;4944888;28;20491;-55
2022/03/19 09:14:05;;;;;;;24.70;16.70;;;;;;;;;;4940363;28;21023;-55
2022/03/19 09:16:31;;;;;;;23.50;16.80;;;;;;;;;;4946311;28;21080;-55
2022/03/19 09:18:57;;;;;;;21.57;15.10;;;;;;;;;;4946967;28;20442;-55
2022/03/19 09:21:36;;;;;;;19.27;15.10;;;;;;;;;;4944709;28;20445;-55
2022/03/19 09:24:04;;;;;;;20.67;14.03;;;;;;;;;;4945392;28;20478;-56
2022/03/19 09:26:30;;;;;;;27.73;16.23;;;;;;;;;;4952443;28;20472;-55
2022/03/19 09:28:57;;;;;;;24.20;16.93;;;;;;;;;;4945129;28;20569;-56
2022/03/19 09:31:25;;;;;;;26.27;16.03;;;;;;;;;;4945498;28;20484;-57
2022/03/19 09:33:51;;;;;;;20.93;14.07;;;;;;;;;;4949361;28;20426;-56
2022/03/19 09:36:17;;;;;;;24.93;15.63;;;;;;;;;;4944501;28;20434;-56
2022/03/19 09:38:43;;;;;;;25.50;18.47;;;;;;;;;;4938574;28;20450;-56
2022/03/19 09:41:11;;;;;;;26.83;16.90;;;;;;;;;;4941170;28;20530;-55
2022/03/19 09:43:37;;;;;;;27.30;18.03;;;;;;;;;;4945889;28;20450;-56
2022/03/19 09:46:03;;;;;;;28.87;16.80;;;;;;;;;;4943496;28;20438;-55
2022/03/19 09:48:29;;;;;;;29.47;17.67;;;;;;;;;;4946486;28;20488;-55
2022/03/19 09:50:58;;;;;;;24.03;16.77;;;;;;;;;;4942616;28;21239;-55
2022/03/19 09:53:24;;;;;;;27.53;17.90;;;;;;;;;;4941063;28;20446;-56
2022/03/19 09:55:53;;;;;;;27.70;18.23;;;;;;;;;;4944714;28;20464;-56
2022/03/19 09:58:19;;;;;;;27.20;17.87;;;;;;;;;;4945886;28;20443;-56
2022/03/19 10:00:45;;;;;;;22.47;16.20;;;;;;;;;;4944606;28;20514;-57
2022/03/19 10:03:12;;;;;;;25.90;17.33;;;;;;;;;;4949937;28;20442;-56
2022/03/19 10:08:39;;;;;;;31.37;18.10;;;;;;;;;;4946186;28;20441;-56
2022/03/19 10:11:08;;;;;;;26.20;18.10;;;;;;;;;;4947712;28;20485;-56
2022/03/19 10:13:56;;;;;;;27.80;18.13;;;;;;;;;;4946193;28;20435;-56
2022/03/19 10:16:26;;;;;;;21.60;15.27;;;;;;;;;;4946301;28;20588;-57
2022/03/19 10:18:59;;;;;;;28.80;19.10;;;;;;;;;;4946451;28;20529;-55
2022/03/19 10:21:26;;;;;;;25.90;19.63;;;;;;;;;;4943844;28;20450;-55
2022/03/19 10:23:52;;;;;;;33.63;19.60;;;;;;;;;;4948696;28;20453;-56
2022/03/19 10:26:28;;;;;;;26.70;18.20;;;;;;;;;;4947736;28;20430;-56
2022/03/19 10:29:01;;;;;;;35.23;17.70;;;;;;;;;;4944140;28;20447;-55
2022/03/19 10:31:38;;;;;;;22.73;17.53;;;;;;;;;;4946608;28;20482;-56
2022/03/19 10:34:08;;;;;;;27.07;18.13;;;;;;;;;;4940516;28;20461;-56
2022/03/19 10:36:34;;;;;;;29.70;19.50;;;;;;;;;;4953088;28;20481;-55
2022/03/19 10:39:00;;;;;;;28.37;18.80;;;;;;;;;;4945405;28;20869;-56
2022/03/19 10:41:27;;;;;;;32.40;19.50;;;;;;;;;;4946549;28;20454;-56
2022/03/19 10:43:53;;;;;;;27.00;19.40;;;;;;;;;;4945497;28;21746;-57
2022/03/19 10:46:19;;;;;;;35.00;22.13;;;;;;;;;;4947739;28;20450;-56
2022/03/19 10:48:49;;;;;;;27.33;20.90;;;;;;;;;;4944118;28;20439;-56
2022/03/19 10:51:17;;;;;;;30.10;20.60;;;;;;;;;;4942015;28;20497;-56
2022/03/19 10:53:43;;;;;;;30.63;20.07;;;;;;;;;;4944526;28;20472;-56
2022/03/19 10:56:09;;;;;;;29.30;19.50;;;;;;;;;;4944672;28;20449;-56
2022/03/19 10:58:35;;;;;;;36.37;23.53;;;;;;;;;;4946200;28;21064;-56
2022/03/19 11:01:02;;;;;;;34.40;22.63;;;;;;;;;;4943253;28;20641;-55
2022/03/19 11:03:29;;;;;;;34.20;23.93;;;;;;;;;;4941047;28;20435;-56
2022/03/19 11:05:56;;;;;;;32.50;23.17;;;;;;;;;;4944027;28;20447;-56
2022/03/19 11:08:23;;;;;;;24.27;18.67;;;;;;;;;;4949957;28;20928;-57
2022/03/19 11:10:49;;;;;;;25.63;16.70;;;;;;;;;;4942570;28;21170;-56
2022/03/19 11:13:16;;;;;;;26.87;18.17;;;;;;;;;;4944428;28;20538;-54
2022/03/19 11:15:44;;;;;;;31.43;20.00;;;;;;;;;;4945552;28;20435;-57
2022/03/19 11:18:10;;;;;;;30.93;20.30;;;;;;;;;;4943156;28;20447;-56
2022/03/19 11:20:36;;;;;;;28.13;17.13;;;;;;;;;;4942722;28;20434;-54
2022/03/19 11:23:05;;;;;;;29.13;16.97;;;;;;;;;;4947144;28;20454;-55
2022/03/19 11:25:31;;;;;;;24.73;17.80;;;;;;;;;;4933734;28;20461;-54
2022/03/19 11:28:14;;;;;;;20.17;14.80;;;;;;;;;;4950431;28;20431;-55
2022/03/19 11:30:45;;;;;;;17.73;14.27;;;;;;;;;;4952174;28;20491;-57
2022/03/19 11:33:11;;;;;;;17.90;12.83;;;;;;;;;;4946391;28;20451;-55
2022/03/19 11:35:38;;;;;;;18.20;12.80;;;;;;;;;;4952018;28;20435;-55
2022/03/19 11:38:16;;;;;;;17.90;12.77;;;;;;;;;;4948733;28;20465;-57
2022/03/19 11:40:54;;;;;;;15.63;11.17;;;;;;;;;;4952023;28;20520;-60
2022/03/19 11:43:33;;;;;;;15.83;11.00;;;;;;;;;;4948097;28;20778;-56
2022/03/19 11:46:02;;;;;;;16.30;9.20;;;;;;;;;;4947614;28;20452;-57
2022/03/19 11:48:35;;;;;;;19.07;10.00;;;;;;;;;;4949538;28;20445;-56
2022/03/19 11:51:37;;;;;;;13.40;9.43;;;;;;;;;;4951155;28;20471;-57
2022/03/19 11:54:11;;;;;;;20.83;11.00;;;;;;;;;;4926131;28;22776;-56
2022/03/19 11:56:44;;;;;;;15.00;9.27;;;;;;;;;;4942536;28;20919;-57
2022/03/19 11:59:14;;;;;;;15.00;10.13;;;;;;;;;;4949420;28;20517;-57
2022/03/19 12:01:47;;;;;;;13.63;8.83;;;;;;;;;;4950025;28;20443;-56
2022/03/19 12:04:13;;;;;;;15.33;9.93;;;;;;;;;;4949437;28;20443;-56
2022/03/19 12:06:49;;;;;;;15.17;9.87;;;;;;;;;;4936393;28;20438;-56
2022/03/19 12:09:15;;;;;;;14.10;9.67;;;;;;;;;;4946098;28;20442;-57
2022/03/19 12:12:08;;;;;;;15.43;10.13;;;;;;;;;;4947440;28;20517;-56
2022/03/19 12:14:35;;;;;;;16.40;9.87;;;;;;;;;;4931466;28;20430;-55
2022/03/19 12:17:17;;;;;;;15.23;8.13;;;;;;;;;;4950977;28;20478;-55
2022/03/19 12:19:59;;;;;;;12.50;9.13;;;;;;;;;;4951062;28;20434;-56
2022/03/19 12:22:43;;;;;;;13.53;9.30;;;;;;;;;;4953337;28;20443;-57
2022/03/19 12:25:13;;;;;;;11.20;7.80;;;;;;;;;;4946912;28;20434;-56
2022/03/19 12:27:45;;;;;;;14.77;8.10;;;;;;;;;;4945469;28;20439;-56
2022/03/19 12:30:11;;;;;;;12.30;8.47;;;;;;;;;;4950238;28;20446;-57
2022/03/19 12:32:49;;;;;;;13.97;9.80;;;;;;;;;;4942169;28;20481;-57
2022/03/19 12:35:17;;;;;;;13.63;8.20;;;;;;;;;;4944525;28;20469;-56
2022/03/19 12:37:46;;;;;;;14.33;9.90;;;;;;;;;;4948926;28;20435;-56
2022/03/19 12:40:26;;;;;;;13.27;9.20;;;;;;;;;;4941172;28;20442;-58
2022/03/19 12:42:57;;;;;;;11.87;8.60;;;;;;;;;;4944188;28;20462;-58
2022/03/19 12:45:42;;;;;;;12.67;8.90;;;;;;;;;;4943086;28;20431;-57
2022/03/19 12:48:18;;;;;;;10.30;7.37;;;;;;;;;;4950200;28;20442;-56
2022/03/19 12:50:54;;;;;;;15.73;8.60;;;;;;;;;;4944632;28;20438;-55
2022/03/19 12:53:36;;;;;;;9.50;7.60;;;;;;;;;;4945870;28;20446;-58
2022/03/19 12:56:12;;;;;;;10.10;8.10;;;;;;;;;;4954282;28;20945;-55
2022/03/19 12:58:39;;;;;;;10.00;7.10;;;;;;;;;;4947289;28;20948;-56
2022/03/19 13:01:14;;;;;;;19.57;8.00;;;;;;;;;;4946237;28;20490;-56
2022/03/19 13:03:41;;;;;;;9.00;6.93;;;;;;;;;;4952337;28;20530;-57
2022/03/19 13:06:07;;;;;;;11.20;7.87;;;;;;;;;;4950119;28;20458;-57
2022/03/19 13:08:44;;;;;;;10.83;6.63;;;;;;;;;;4947226;28;20473;-57
2022/03/19 13:11:13;;;;;;;8.33;5.73;;;;;;;;;;4936548;28;20489;-57
2022/03/19 13:13:43;;;;;;;8.30;6.00;;;;;;;;;;4948129;28;20441;-56
2022/03/19 13:16:09;;;;;;;8.43;6.87;;;;;;;;;;4936241;28;21170;-57
2022/03/19 13:18:35;;;;;;;9.67;5.90;;;;;;;;;;4947841;28;21047;-55
2022/03/19 13:21:08;;;;;;;9.27;6.73;;;;;;;;;;4950443;28;20477;-56
2022/03/19 13:23:36;;;;;;;11.63;6.83;;;;;;;;;;4947371;28;20437;-55
2022/03/19 13:26:02;;;;;;;10.23;7.40;;;;;;;;;;4948532;28;20440;-56
2022/03/19 13:28:28;;;;;;;8.10;6.20;;;;;;;;;;4949329;28;20434;-55
2022/03/19 13:30:55;;;;;;;9.83;6.63;;;;;;;;;;4948819;28;20746;-56
2022/03/19 13:33:22;;;;;;;7.13;5.23;;;;;;;;;;4945604;28;20960;-57
2022/03/19 13:35:51;;;;;;;10.73;6.37;;;;;;;;;;4948850;28;20443;-56
2022/03/19 13:38:19;;;;;;;9.00;5.87;;;;;;;;;;4949554;28;20446;-56
2022/03/19 13:40:52;;;;;;;8.80;6.20;;;;;;;;;;4950551;28;20478;-57
2022/03/19 13:43:21;;;;;;;9.17;6.37;;;;;;;;;;4947891;28;20534;-56
2022/03/19 13:46:00;;;;;;;7.50;5.40;;;;;;;;;;4951307;28;22282;-55
2022/03/19 13:48:27;;;;;;;10.17;6.40;;;;;;;;;;4947222;28;20948;-56
2022/03/19 13:50:58;;;;;;;9.13;4.80;;;;;;;;;;4948262;28;20443;-56
2022/03/19 13:53:26;;;;;;;6.50;4.27;;;;;;;;;;4949483;28;20533;-56
2022/03/19 13:55:53;;;;;;;8.50;4.90;;;;;;;;;;4947661;28;20439;-54
2022/03/19 13:58:20;;;;;;;10.50;5.90;;;;;;;;;;4945524;28;20500;-57
2022/03/19 14:00:47;;;;;;;8.27;6.10;;;;;;;;;;4946141;28;20472;-56
2022/03/19 14:03:16;;;;;;;10.43;5.07;;;;;;;;;;4947906;28;20449;-56
2022/03/19 14:05:51;;;;;;;8.30;5.50;;;;;;;;;;4946689;28;21074;-56
2022/03/19 14:08:21;;;;;;;4.60;3.97;;;;;;;;;;4944981;28;20454;-57
2022/03/19 14:10:49;;;;;;;7.50;4.40;;;;;;;;;;4945863;28;20434;-57
2022/03/19 14:13:17;;;;;;;8.90;4.83;;;;;;;;;;4946162;28;20711;-57
2022/03/19 14:15:48;;;;;;;6.13;4.13;;;;;;;;;;4947928;28;20503;-55
2022/03/19 14:18:25;;;;;;;5.80;4.17;;;;;;;;;;4944595;28;20461;-57
2022/03/19 14:20:52;;;;;;;8.03;4.17;;;;;;;;;;4946860;28;20446;-57
2022/03/19 14:23:19;;;;;;;6.33;3.77;;;;;;;;;;4946676;28;20448;-56
2022/03/19 14:25:48;;;;;;;5.30;3.23;;;;;;;;;;4949774;28;20438;-56
2022/03/19 14:28:15;;;;;;;4.97;3.73;;;;;;;;;;4948191;28;20509;-57
2022/03/19 14:30:42;;;;;;;6.73;3.67;;;;;;;;;;4961587;28;20446;-56
2022/03/19 14:33:10;;;;;;;11.83;3.97;;;;;;;;;;4947905;28;20451;-58
2022/03/19 14:35:39;;;;;;;4.27;3.20;;;;;;;;;;4947291;28;20443;-57
2022/03/19 14:38:12;;;;;;;5.23;3.60;;;;;;;;;;4947017;28;20450;-57
2022/03/19 14:40:42;;;;;;;7.47;3.87;;;;;;;;;;4946615;28;20446;-57
2022/03/19 14:43:10;;;;;;;4.30;3.20;;;;;;;;;;4947989;28;21105;-56
2022/03/19 14:45:37;;;;;;;6.33;4.07;;;;;;;;;;4942476;28;20447;-57
2022/03/19 14:48:06;;;;;;;3.50;2.60;;;;;;;;;;4948640;28;20474;-57